sensor_id;sensor_type;location;lat;lon;timestamp;temperature;humidity
23873;DHT22;42884;50.718;4.630;2022-09-17T00:01:16;11.70;99.90
23873;DHT22;42884;50.718;4.630;2022-09-17T00:03:42;11.70;99.90
23873;DHT22;42884;50.718;4.630;2022-09-17T00:06:09;11.70;99.90
23873;DHT22;42884;50.718;4.630;2022-09-17T00:08:35;11.60;99.90
23873;DHT22;42884;50.718;4.630;2022-09-17T00:11:09;11.60;99.90
23873;DHT22;42884;50.718;4.630;2022-09-17T00:13:35;11.50;99.90
23873;DHT22;42884;50.718;4.630;2022-09-17T00:16:01;11.60;99.90
23873;DHT22;42884;50.718;4.630;2022-09-17T00:18:26;11.60;99.90
23873;DHT22;42884;50.718;4.630;2022-09-17T00:20:52;11.50;99.90
23873;DHT22;42884;50.718;4.630;2022-09-17T00:23:17;11.50;99.90
23873;DHT22;42884;50.718;4.630;2022-09-17T00:25:43;11.50;99.90
23873;DHT22;42884;50.718;4.630;2022-09-17T00:28:10;11.60;99.90
23873;DHT22;42884;50.718;4.630;2022-09-17T00:30:38;11.70;99.90
23873;DHT22;42884;50.718;4.630;2022-09-17T00:33:04;11.70;99.90
23873;DHT22;42884;50.718;4.630;2022-09-17T00:35:29;11.70;99.90
23873;DHT22;42884;50.718;4.630;2022-09-17T00:37:55;11.70;99.90
23873;DHT22;42884;50.718;4.630;2022-09-17T00:40:20;11.60;99.90
23873;DHT22;42884;50.718;4.630;2022-09-17T00:42:46;11.70;99.90
23873;DHT22;42884;50.718;4.630;2022-09-17T00:45:11;11.60;99.90
23873;DHT22;42884;50.718;4.630;2022-09-17T00:47:41;11.70;99.90
23873;DHT22;42884;50.718;4.630;2022-09-17T00:50:18;11.70;99.90
23873;DHT22;42884;50.718;4.630;2022-09-17T00:53:18;11.80;99.90
23873;DHT22;42884;50.718;4.630;2022-09-17T00:55:40;11.80;99.90
23873;DHT22;42884;50.718;4.630;2022-09-17T00:58:07;11.90;99.90
23873;DHT22;42884;50.718;4.630;2022-09-17T01:00:34;12.00;99.90
23873;DHT22;42884;50.718;4.630;2022-09-17T01:02:59;11.90;99.90
23873;DHT22;42884;50.718;4.630;2022-09-17T01:10:38;11.90;99.90
23873;DHT22;42884;50.718;4.630;2022-09-17T01:13:12;11.90;99.90
23873;DHT22;42884;50.718;4.630;2022-09-17T01:15:42;11.90;99.90
23873;DHT22;42884;50.718;4.630;2022-09-17T01:36:21;11.80;99.90
23873;DHT22;42884;50.718;4.630;2022-09-17T01:41:26;11.80;99.90
23873;DHT22;42884;50.718;4.630;2022-09-17T01:44:03;11.90;99.90
23873;DHT22;42884;50.718;4.630;2022-09-17T01:46:31;11.90;99.90
23873;DHT22;42884;50.718;4.630;2022-09-17T01:49:02;11.90;99.90
23873;DHT22;42884;50.718;4.630;2022-09-17T01:51:29;11.90;99.90
23873;DHT22;42884;50.718;4.630;2022-09-17T01:54:01;11.90;99.90
23873;DHT22;42884;50.718;4.630;2022-09-17T01:56:39;11.90;99.90
23873;DHT22;42884;50.718;4.630;2022-09-17T02:01:50;11.80;99.90
23873;DHT22;42884;50.718;4.630;2022-09-17T02:04:25;11.80;99.90
23873;DHT22;42884;50.718;4.630;2022-09-17T02:06:55;11.80;99.90
23873;DHT22;42884;50.718;4.630;2022-09-17T02:09:24;11.90;99.90
23873;DHT22;42884;50.718;4.630;2022-09-17T02:11:51;11.90;99.90
23873;DHT22;42884;50.718;4.630;2022-09-17T02:14:27;11.90;99.90
23873;DHT22;42884;50.718;4.630;2022-09-17T02:16:55;11.90;99.90
23873;DHT22;42884;50.718;4.630;2022-09-17T02:19:26;12.00;99.90
23873;DHT22;42884;50.718;4.630;2022-09-17T02:21:55;12.00;99.90
23873;DHT22;42884;50.718;4.630;2022-09-17T02:24:24;12.00;99.90
23873;DHT22;42884;50.718;4.630;2022-09-17T02:27:01;12.00;99.90
23873;DHT22;42884;50.718;4.630;2022-09-17T02:29:31;12.10;99.90
23873;DHT22;42884;50.718;4.630;2022-09-17T02:31:57;12.10;99.90
23873;DHT22;42884;50.718;4.630;2022-09-17T02:34:23;12.10;99.90
23873;DHT22;42884;50.718;4.630;2022-09-17T02:36:51;12.10;99.90
23873;DHT22;42884;50.718;4.630;2022-09-17T02:39:16;12.10;99.90
23873;DHT22;42884;50.718;4.630;2022-09-17T02:49:52;12.20;99.90
23873;DHT22;42884;50.718;4.630;2022-09-17T02:52:40;12.10;99.90
23873;DHT22;42884;50.718;4.630;2022-09-17T02:55:24;12.10;99.90
23873;DHT22;42884;50.718;4.630;2022-09-17T03:00:20;11.90;99.90
23873;DHT22;42884;50.718;4.630;2022-09-17T03:02:49;12.00;99.90
23873;DHT22;42884;50.718;4.630;2022-09-17T03:05:19;12.00;99.90
23873;DHT22;42884;50.718;4.630;2022-09-17T03:07:45;12.00;99.90
23873;DHT22;42884;50.718;4.630;2022-09-17T03:10:11;12.10;99.90
23873;DHT22;42884;50.718;4.630;2022-09-17T03:12:37;12.10;99.90
23873;DHT22;42884;50.718;4.630;2022-09-17T03:15:03;12.30;99.90
23873;DHT22;42884;50.718;4.630;2022-09-17T03:17:29;12.30;99.90
23873;DHT22;42884;50.718;4.630;2022-09-17T03:19:54;12.40;99.90
23873;DHT22;42884;50.718;4.630;2022-09-17T03:22:20;12.40;99.90
23873;DHT22;42884;50.718;4.630;2022-09-17T03:24:46;12.40;99.90
23873;DHT22;42884;50.718;4.630;2022-09-17T03:27:11;12.50;99.90
23873;DHT22;42884;50.718;4.630;2022-09-17T03:29:37;12.50;99.90
23873;DHT22;42884;50.718;4.630;2022-09-17T03:32:02;12.40;99.90
23873;DHT22;42884;50.718;4.630;2022-09-17T03:34:28;12.30;99.90
23873;DHT22;42884;50.718;4.630;2022-09-17T03:36:54;12.30;99.90
23873;DHT22;42884;50.718;4.630;2022-09-17T03:39:19;12.30;99.90
23873;DHT22;42884;50.718;4.630;2022-09-17T03:41:45;12.30;99.90
23873;DHT22;42884;50.718;4.630;2022-09-17T03:44:10;12.20;99.90
23873;DHT22;42884;50.718;4.630;2022-09-17T03:46:36;12.20;99.90
23873;DHT22;42884;50.718;4.630;2022-09-17T03:49:02;12.20;99.90
23873;DHT22;42884;50.718;4.630;2022-09-17T03:51:28;12.10;99.90
23873;DHT22;42884;50.718;4.630;2022-09-17T03:53:53;12.00;99.90
23873;DHT22;42884;50.718;4.630;2022-09-17T03:56:19;12.00;99.90
23873;DHT22;42884;50.718;4.630;2022-09-17T03:58:44;12.00;99.90
23873;DHT22;42884;50.718;4.630;2022-09-17T04:01:10;12.00;99.90
23873;DHT22;42884;50.718;4.630;2022-09-17T04:03:35;12.00;99.90
23873;DHT22;42884;50.718;4.630;2022-09-17T04:06:01;12.00;99.90
23873;DHT22;42884;50.718;4.630;2022-09-17T04:08:27;11.90;99.90
23873;DHT22;42884;50.718;4.630;2022-09-17T04:10:52;11.80;99.90
23873;DHT22;42884;50.718;4.630;2022-09-17T04:13:18;11.80;99.90
23873;DHT22;42884;50.718;4.630;2022-09-17T04:15:44;11.80;99.90
23873;DHT22;42884;50.718;4.630;2022-09-17T04:18:10;11.70;99.90
23873;DHT22;42884;50.718;4.630;2022-09-17T04:20:36;11.70;99.90
23873;DHT22;42884;50.718;4.630;2022-09-17T04:23:01;11.70;99.90
23873;DHT22;42884;50.718;4.630;2022-09-17T04:25:27;11.70;99.90
23873;DHT22;42884;50.718;4.630;2022-09-17T04:27:52;11.70;99.90
23873;DHT22;42884;50.718;4.630;2022-09-17T04:30:18;11.60;99.90
23873;DHT22;42884;50.718;4.630;2022-09-17T04:32:43;11.60;99.90
23873;DHT22;42884;50.718;4.630;2022-09-17T04:35:09;11.70;99.90
23873;DHT22;42884;50.718;4.630;2022-09-17T04:37:35;11.70;99.90
23873;DHT22;42884;50.718;4.630;2022-09-17T04:40:01;11.60;99.90
23873;DHT22;42884;50.718;4.630;2022-09-17T04:42:27;11.60;99.90
23873;DHT22;42884;50.718;4.630;2022-09-17T04:44:52;11.50;99.90
23873;DHT22;42884;50.718;4.630;2022-09-17T04:47:18;11.50;99.90
23873;DHT22;42884;50.718;4.630;2022-09-17T04:49:43;11.50;99.90
23873;DHT22;42884;50.718;4.630;2022-09-17T04:52:09;11.50;99.90
23873;DHT22;42884;50.718;4.630;2022-09-17T04:54:34;11.50;99.90
23873;DHT22;42884;50.718;4.630;2022-09-17T04:57:00;11.50;99.90
23873;DHT22;42884;50.718;4.630;2022-09-17T04:59:25;11.50;99.90
23873;DHT22;42884;50.718;4.630;2022-09-17T05:01:51;11.40;99.90
23873;DHT22;42884;50.718;4.630;2022-09-17T05:04:16;11.40;99.90
23873;DHT22;42884;50.718;4.630;2022-09-17T05:06:42;11.40;99.90
23873;DHT22;42884;50.718;4.630;2022-09-17T05:09:07;11.30;99.90
23873;DHT22;42884;50.718;4.630;2022-09-17T05:11:33;11.30;99.90
23873;DHT22;42884;50.718;4.630;2022-09-17T05:13:59;11.30;99.90
23873;DHT22;42884;50.718;4.630;2022-09-17T05:16:24;11.30;99.90
23873;DHT22;42884;50.718;4.630;2022-09-17T05:18:50;11.40;99.90
23873;DHT22;42884;50.718;4.630;2022-09-17T05:21:16;11.40;99.90
23873;DHT22;42884;50.718;4.630;2022-09-17T05:23:42;11.50;99.90
23873;DHT22;42884;50.718;4.630;2022-09-17T05:26:07;11.40;99.90
23873;DHT22;42884;50.718;4.630;2022-09-17T05:28:33;11.40;99.90
23873;DHT22;42884;50.718;4.630;2022-09-17T05:30:58;11.40;99.90
23873;DHT22;42884;50.718;4.630;2022-09-17T05:33:24;11.40;99.90
23873;DHT22;42884;50.718;4.630;2022-09-17T05:35:49;11.40;99.90
23873;DHT22;42884;50.718;4.630;2022-09-17T05:38:15;11.40;99.90
23873;DHT22;42884;50.718;4.630;2022-09-17T05:40:43;11.40;99.90
23873;DHT22;42884;50.718;4.630;2022-09-17T05:43:09;11.30;99.90
23873;DHT22;42884;50.718;4.630;2022-09-17T05:45:35;11.30;99.90
23873;DHT22;42884;50.718;4.630;2022-09-17T05:48:02;11.30;99.90
23873;DHT22;42884;50.718;4.630;2022-09-17T05:50:28;11.30;99.90
23873;DHT22;42884;50.718;4.630;2022-09-17T05:52:53;11.30;99.90
23873;DHT22;42884;50.718;4.630;2022-09-17T05:55:19;11.30;99.90
23873;DHT22;42884;50.718;4.630;2022-09-17T05:57:49;11.30;99.90
23873;DHT22;42884;50.718;4.630;2022-09-17T06:00:15;11.40;99.90
23873;DHT22;42884;50.718;4.630;2022-09-17T06:02:41;11.40;99.90
23873;DHT22;42884;50.718;4.630;2022-09-17T06:05:06;11.40;99.90
23873;DHT22;42884;50.718;4.630;2022-09-17T06:07:35;11.40;99.90
23873;DHT22;42884;50.718;4.630;2022-09-17T06:10:02;11.30;99.90
23873;DHT22;42884;50.718;4.630;2022-09-17T06:12:28;11.30;99.90
23873;DHT22;42884;50.718;4.630;2022-09-17T06:14:53;11.20;99.90
23873;DHT22;42884;50.718;4.630;2022-09-17T06:17:19;11.30;99.90
23873;DHT22;42884;50.718;4.630;2022-09-17T06:19:44;11.40;99.90
23873;DHT22;42884;50.718;4.630;2022-09-17T06:22:10;11.50;99.90
23873;DHT22;42884;50.718;4.630;2022-09-17T06:24:35;11.50;99.90
23873;DHT22;42884;50.718;4.630;2022-09-17T06:27:01;11.60;99.90
23873;DHT22;42884;50.718;4.630;2022-09-17T06:29:29;11.70;99.90
23873;DHT22;42884;50.718;4.630;2022-09-17T06:31:55;11.70;99.90
23873;DHT22;42884;50.718;4.630;2022-09-17T06:34:20;11.70;99.90
23873;DHT22;42884;50.718;4.630;2022-09-17T06:36:47;11.80;99.90
23873;DHT22;42884;50.718;4.630;2022-09-17T06:39:13;11.80;99.90
23873;DHT22;42884;50.718;4.630;2022-09-17T06:41:40;11.80;99.90
23873;DHT22;42884;50.718;4.630;2022-09-17T06:44:06;12.00;99.90
23873;DHT22;42884;50.718;4.630;2022-09-17T06:46:32;12.00;99.90
23873;DHT22;42884;50.718;4.630;2022-09-17T06:48:57;12.00;99.90
23873;DHT22;42884;50.718;4.630;2022-09-17T06:51:25;12.10;99.90
23873;DHT22;42884;50.718;4.630;2022-09-17T06:53:51;12.20;99.90
23873;DHT22;42884;50.718;4.630;2022-09-17T06:56:16;12.20;99.90
23873;DHT22;42884;50.718;4.630;2022-09-17T06:58:42;12.30;99.90
23873;DHT22;42884;50.718;4.630;2022-09-17T07:01:08;12.40;99.90
23873;DHT22;42884;50.718;4.630;2022-09-17T07:03:34;12.40;99.90
23873;DHT22;42884;50.718;4.630;2022-09-17T07:06:02;12.40;99.90
23873;DHT22;42884;50.718;4.630;2022-09-17T07:08:27;12.50;99.90
23873;DHT22;42884;50.718;4.630;2022-09-17T07:10:54;12.60;99.90
23873;DHT22;42884;50.718;4.630;2022-09-17T07:13:20;12.70;99.90
23873;DHT22;42884;50.718;4.630;2022-09-17T07:15:55;12.70;99.90
23873;DHT22;42884;50.718;4.630;2022-09-17T07:18:22;12.90;99.90
23873;DHT22;42884;50.718;4.630;2022-09-17T07:20:57;12.90;99.90
23873;DHT22;42884;50.718;4.630;2022-09-17T07:23:23;12.90;99.90
23873;DHT22;42884;50.718;4.630;2022-09-17T07:25:53;12.90;99.90
23873;DHT22;42884;50.718;4.630;2022-09-17T07:28:19;13.10;99.90
23873;DHT22;42884;50.718;4.630;2022-09-17T07:30:45;13.00;99.90
23873;DHT22;42884;50.718;4.630;2022-09-17T07:33:11;13.00;99.90
23873;DHT22;42884;50.718;4.630;2022-09-17T07:35:36;13.10;99.90
23873;DHT22;42884;50.718;4.630;2022-09-17T07:38:02;13.10;99.90
23873;DHT22;42884;50.718;4.630;2022-09-17T07:40:27;13.10;99.90
23873;DHT22;42884;50.718;4.630;2022-09-17T07:42:55;13.20;99.90
23873;DHT22;42884;50.718;4.630;2022-09-17T07:45:22;13.10;99.90
23873;DHT22;42884;50.718;4.630;2022-09-17T07:47:48;13.00;99.90
23873;DHT22;42884;50.718;4.630;2022-09-17T07:50:13;13.10;99.90
23873;DHT22;42884;50.718;4.630;2022-09-17T07:52:44;12.90;99.90
23873;DHT22;42884;50.718;4.630;2022-09-17T07:55:09;13.00;99.90
23873;DHT22;42884;50.718;4.630;2022-09-17T07:57:35;13.00;99.90
23873;DHT22;42884;50.718;4.630;2022-09-17T08:00:01;13.00;99.90
23873;DHT22;42884;50.718;4.630;2022-09-17T08:02:26;13.00;99.90
23873;DHT22;42884;50.718;4.630;2022-09-17T08:04:53;13.10;99.90
23873;DHT22;42884;50.718;4.630;2022-09-17T08:07:19;13.10;99.90
23873;DHT22;42884;50.718;4.630;2022-09-17T08:09:45;13.20;99.90
23873;DHT22;42884;50.718;4.630;2022-09-17T08:12:10;13.30;99.90
23873;DHT22;42884;50.718;4.630;2022-09-17T08:14:36;13.30;99.90
23873;DHT22;42884;50.718;4.630;2022-09-17T08:17:01;13.40;99.90
23873;DHT22;42884;50.718;4.630;2022-09-17T08:19:29;13.40;99.90
23873;DHT22;42884;50.718;4.630;2022-09-17T08:21:55;13.50;99.90
23873;DHT22;42884;50.718;4.630;2022-09-17T08:24:20;13.70;99.90
23873;DHT22;42884;50.718;4.630;2022-09-17T08:26:46;13.70;99.90
23873;DHT22;42884;50.718;4.630;2022-09-17T08:29:11;13.70;99.90
23873;DHT22;42884;50.718;4.630;2022-09-17T08:31:37;13.90;99.90
23873;DHT22;42884;50.718;4.630;2022-09-17T08:34:05;14.00;99.90
23873;DHT22;42884;50.718;4.630;2022-09-17T08:36:31;14.10;99.90
23873;DHT22;42884;50.718;4.630;2022-09-17T08:38:56;13.90;99.90
23873;DHT22;42884;50.718;4.630;2022-09-17T08:43:55;14.00;99.90
23873;DHT22;42884;50.718;4.630;2022-09-17T08:46:23;14.10;99.90
23873;DHT22;42884;50.718;4.630;2022-09-17T08:48:51;14.00;99.90
23873;DHT22;42884;50.718;4.630;2022-09-17T08:56:17;14.20;99.90
23873;DHT22;42884;50.718;4.630;2022-09-17T09:01:32;14.30;99.90
23873;DHT22;42884;50.718;4.630;2022-09-17T09:06:26;14.40;99.90
23873;DHT22;42884;50.718;4.630;2022-09-17T09:08:57;14.40;99.90
23873;DHT22;42884;50.718;4.630;2022-09-17T09:11:28;14.50;99.90
23873;DHT22;42884;50.718;4.630;2022-09-17T09:16:37;15.40;99.90
23873;DHT22;42884;50.718;4.630;2022-09-17T09:19:12;15.70;99.90
23873;DHT22;42884;50.718;4.630;2022-09-17T09:21:43;15.80;99.90
23873;DHT22;42884;50.718;4.630;2022-09-17T09:24:21;16.70;99.90
23873;DHT22;42884;50.718;4.630;2022-09-17T09:26:56;18.00;99.90
23873;DHT22;42884;50.718;4.630;2022-09-17T09:29:41;18.50;99.90
23873;DHT22;42884;50.718;4.630;2022-09-17T09:34:35;17.70;99.90
23873;DHT22;42884;50.718;4.630;2022-09-17T09:37:09;17.10;99.90
23873;DHT22;42884;50.718;4.630;2022-09-17T09:39:36;16.50;99.90
23873;DHT22;42884;50.718;4.630;2022-09-17T09:42:06;16.30;99.90
23873;DHT22;42884;50.718;4.630;2022-09-17T09:44:35;15.90;99.90
23873;DHT22;42884;50.718;4.630;2022-09-17T09:57:13;15.30;99.90
23873;DHT22;42884;50.718;4.630;2022-09-17T09:59:40;15.20;99.90
23873;DHT22;42884;50.718;4.630;2022-09-17T10:02:06;15.10;99.90
23873;DHT22;42884;50.718;4.630;2022-09-17T10:04:31;14.90;99.90
23873;DHT22;42884;50.718;4.630;2022-09-17T10:07:01;14.80;99.90
23873;DHT22;42884;50.718;4.630;2022-09-17T10:09:27;14.80;99.90
23873;DHT22;42884;50.718;4.630;2022-09-17T10:14:25;15.10;99.90
23873;DHT22;42884;50.718;4.630;2022-09-17T10:19:38;15.50;99.90
23873;DHT22;42884;50.718;4.630;2022-09-17T10:24:41;16.40;99.90
23873;DHT22;42884;50.718;4.630;2022-09-17T10:27:10;16.20;99.90
23873;DHT22;42884;50.718;4.630;2022-09-17T10:29:41;16.00;99.90
23873;DHT22;42884;50.718;4.630;2022-09-17T10:32:13;15.80;99.90
23873;DHT22;42884;50.718;4.630;2022-09-17T10:34:39;15.70;99.90
23873;DHT22;42884;50.718;4.630;2022-09-17T10:37:08;15.60;99.90
23873;DHT22;42884;50.718;4.630;2022-09-17T10:39:51;15.60;99.90
23873;DHT22;42884;50.718;4.630;2022-09-17T10:42:17;15.70;99.90
23873;DHT22;42884;50.718;4.630;2022-09-17T10:44:50;15.80;99.90
23873;DHT22;42884;50.718;4.630;2022-09-17T10:57:14;15.80;99.90
23873;DHT22;42884;50.718;4.630;2022-09-17T11:00:06;15.60;99.90
23873;DHT22;42884;50.718;4.630;2022-09-17T11:02:46;15.60;99.90
23873;DHT22;42884;50.718;4.630;2022-09-17T11:05:23;15.80;99.90
23873;DHT22;42884;50.718;4.630;2022-09-17T11:10:29;16.50;99.90
23873;DHT22;42884;50.718;4.630;2022-09-17T11:13:01;16.80;99.90
23873;DHT22;42884;50.718;4.630;2022-09-17T11:15:39;16.80;99.90
23873;DHT22;42884;50.718;4.630;2022-09-17T11:25:54;16.30;99.90
23873;DHT22;42884;50.718;4.630;2022-09-17T11:38:49;16.40;99.90
23873;DHT22;42884;50.718;4.630;2022-09-17T11:41:16;16.30;99.90
23873;DHT22;42884;50.718;4.630;2022-09-17T11:43:52;16.20;99.90
23873;DHT22;42884;50.718;4.630;2022-09-17T11:46:30;16.10;99.90
23873;DHT22;42884;50.718;4.630;2022-09-17T11:48:58;15.90;99.90
23873;DHT22;42884;50.718;4.630;2022-09-17T11:51:33;15.80;99.90
23873;DHT22;42884;50.718;4.630;2022-09-17T11:54:18;15.90;99.90
23873;DHT22;42884;50.718;4.630;2022-09-17T11:56:47;16.00;99.90
23873;DHT22;42884;50.718;4.630;2022-09-17T11:59:30;16.10;99.90
23873;DHT22;42884;50.718;4.630;2022-09-17T12:02:00;16.10;99.90
23873;DHT22;42884;50.718;4.630;2022-09-17T12:04:30;16.10;99.90
23873;DHT22;42884;50.718;4.630;2022-09-17T12:09:44;16.40;99.90
23873;DHT22;42884;50.718;4.630;2022-09-17T12:12:20;16.40;99.90
23873;DHT22;42884;50.718;4.630;2022-09-17T12:14:53;16.50;99.90
23873;DHT22;42884;50.718;4.630;2022-09-17T12:17:21;16.60;99.90
23873;DHT22;42884;50.718;4.630;2022-09-17T12:19:56;16.70;99.90
23873;DHT22;42884;50.718;4.630;2022-09-17T12:22:25;16.60;99.90
23873;DHT22;42884;50.718;4.630;2022-09-17T12:24:52;16.60;99.90
23873;DHT22;42884;50.718;4.630;2022-09-17T12:27:21;16.80;99.90
23873;DHT22;42884;50.718;4.630;2022-09-17T12:30:07;17.20;99.90
23873;DHT22;42884;50.718;4.630;2022-09-17T12:50:09;19.10;99.90
23873;DHT22;42884;50.718;4.630;2022-09-17T12:55:20;19.10;99.90
23873;DHT22;42884;50.718;4.630;2022-09-17T13:00:15;19.30;99.90
23873;DHT22;42884;50.718;4.630;2022-09-17T13:07:50;19.50;99.90
23873;DHT22;42884;50.718;4.630;2022-09-17T13:12:46;19.40;99.90
23873;DHT22;42884;50.718;4.630;2022-09-17T13:18:06;19.50;99.90
23873;DHT22;42884;50.718;4.630;2022-09-17T13:23:04;18.70;99.90
23873;DHT22;42884;50.718;4.630;2022-09-17T13:25:30;18.60;99.90
23873;DHT22;42884;50.718;4.630;2022-09-17T13:28:08;18.40;99.90
23873;DHT22;42884;50.718;4.630;2022-09-17T13:39:02;17.20;99.90
23873;DHT22;42884;50.718;4.630;2022-09-17T13:41:28;16.90;99.90
23873;DHT22;42884;50.718;4.630;2022-09-17T13:43:54;16.80;99.90
23873;DHT22;42884;50.718;4.630;2022-09-17T13:46:21;16.60;99.90
23873;DHT22;42884;50.718;4.630;2022-09-17T13:48:49;16.80;99.90
23873;DHT22;42884;50.718;4.630;2022-09-17T13:53:59;17.30;99.90
23873;DHT22;42884;50.718;4.630;2022-09-17T13:56:29;17.80;99.90
23873;DHT22;42884;50.718;4.630;2022-09-17T13:59:09;18.40;99.90
23873;DHT22;42884;50.718;4.630;2022-09-17T14:04:34;19.00;99.90
23873;DHT22;42884;50.718;4.630;2022-09-17T14:09:55;18.90;99.90
23873;DHT22;42884;50.718;4.630;2022-09-17T14:18:00;19.60;99.90
23873;DHT22;42884;50.718;4.630;2022-09-17T14:20:28;19.60;99.90
23873;DHT22;42884;50.718;4.630;2022-09-17T14:23:00;19.50;99.90
23873;DHT22;42884;50.718;4.630;2022-09-17T14:25:39;19.50;99.90
23873;DHT22;42884;50.718;4.630;2022-09-17T14:28:09;19.60;99.90
23873;DHT22;42884;50.718;4.630;2022-09-17T14:30:38;19.80;99.90
23873;DHT22;42884;50.718;4.630;2022-09-17T14:33:17;19.60;99.90
23873;DHT22;42884;50.718;4.630;2022-09-17T14:35:47;19.70;99.90
23873;DHT22;42884;50.718;4.630;2022-09-17T14:40:46;20.10;99.90
23873;DHT22;42884;50.718;4.630;2022-09-17T14:43:15;20.10;99.90
23873;DHT22;42884;50.718;4.630;2022-09-17T14:45:42;19.90;99.90
23873;DHT22;42884;50.718;4.630;2022-09-17T14:48:19;19.90;99.90
23873;DHT22;42884;50.718;4.630;2022-09-17T14:50:47;19.50;99.90
23873;DHT22;42884;50.718;4.630;2022-09-17T14:53:16;19.50;99.90
23873;DHT22;42884;50.718;4.630;2022-09-17T14:55:42;19.10;99.90
23873;DHT22;42884;50.718;4.630;2022-09-17T14:58:23;18.60;99.90
23873;DHT22;42884;50.718;4.630;2022-09-17T15:00:51;18.30;99.90
23873;DHT22;42884;50.718;4.630;2022-09-17T15:03:20;17.60;99.90
23873;DHT22;42884;50.718;4.630;2022-09-17T15:05:46;17.20;99.90
23873;DHT22;42884;50.718;4.630;2022-09-17T15:08:15;16.80;99.90
23873;DHT22;42884;50.718;4.630;2022-09-17T15:10:46;16.80;99.90
23873;DHT22;42884;50.718;4.630;2022-09-17T15:13:13;16.50;99.90
23873;DHT22;42884;50.718;4.630;2022-09-17T15:15:39;16.20;99.90
23873;DHT22;42884;50.718;4.630;2022-09-17T15:18:04;16.10;99.90
23873;DHT22;42884;50.718;4.630;2022-09-17T15:20:30;16.00;99.90
23873;DHT22;42884;50.718;4.630;2022-09-17T15:23:08;16.00;99.90
23873;DHT22;42884;50.718;4.630;2022-09-17T15:25:39;16.00;99.90
23873;DHT22;42884;50.718;4.630;2022-09-17T15:28:12;15.90;99.90
23873;DHT22;42884;50.718;4.630;2022-09-17T15:30:40;15.90;99.90
23873;DHT22;42884;50.718;4.630;2022-09-17T15:33:08;15.90;99.90
23873;DHT22;42884;50.718;4.630;2022-09-17T15:35:34;15.80;99.90
23873;DHT22;42884;50.718;4.630;2022-09-17T15:38:00;15.60;99.90
23873;DHT22;42884;50.718;4.630;2022-09-17T15:40:33;15.70;99.90
23873;DHT22;42884;50.718;4.630;2022-09-17T15:45:44;15.80;99.90
23873;DHT22;42884;50.718;4.630;2022-09-17T15:48:17;15.70;99.90
23873;DHT22;42884;50.718;4.630;2022-09-17T15:50:49;15.70;99.90
23873;DHT22;42884;50.718;4.630;2022-09-17T15:53:20;15.60;99.90
23873;DHT22;42884;50.718;4.630;2022-09-17T15:56:07;15.60;99.90
23873;DHT22;42884;50.718;4.630;2022-09-17T16:08:52;15.60;99.90
23873;DHT22;42884;50.718;4.630;2022-09-17T16:11:18;15.70;99.90
23873;DHT22;42884;50.718;4.630;2022-09-17T16:13:44;15.90;99.90
23873;DHT22;42884;50.718;4.630;2022-09-17T16:16:14;15.70;99.90
23873;DHT22;42884;50.718;4.630;2022-09-17T16:18:40;15.70;99.90
23873;DHT22;42884;50.718;4.630;2022-09-17T16:21:06;15.70;99.90
23873;DHT22;42884;50.718;4.630;2022-09-17T16:23:32;15.80;99.90
23873;DHT22;42884;50.718;4.630;2022-09-17T16:25:58;15.80;99.90
23873;DHT22;42884;50.718;4.630;2022-09-17T16:28:23;15.80;99.90
23873;DHT22;42884;50.718;4.630;2022-09-17T16:30:51;15.60;99.90
23873;DHT22;42884;50.718;4.630;2022-09-17T16:33:17;15.40;99.90
23873;DHT22;42884;50.718;4.630;2022-09-17T16:35:43;15.30;99.90
23873;DHT22;42884;50.718;4.630;2022-09-17T16:38:09;15.20;99.90
23873;DHT22;42884;50.718;4.630;2022-09-17T16:40:42;15.10;99.90
23873;DHT22;42884;50.718;4.630;2022-09-17T16:43:09;14.80;99.90
23873;DHT22;42884;50.718;4.630;2022-09-17T16:45:35;14.90;99.90
23873;DHT22;42884;50.718;4.630;2022-09-17T16:48:00;14.90;99.90
23873;DHT22;42884;50.718;4.630;2022-09-17T16:50:26;14.90;99.90
23873;DHT22;42884;50.718;4.630;2022-09-17T16:52:52;14.80;99.90
23873;DHT22;42884;50.718;4.630;2022-09-17T16:55:18;14.70;99.90
23873;DHT22;42884;50.718;4.630;2022-09-17T16:57:43;14.70;99.90
23873;DHT22;42884;50.718;4.630;2022-09-17T17:00:10;14.70;99.90
23873;DHT22;42884;50.718;4.630;2022-09-17T17:02:49;14.70;99.90
23873;DHT22;42884;50.718;4.630;2022-09-17T17:05:15;14.70;99.90
23873;DHT22;42884;50.718;4.630;2022-09-17T17:07:43;14.70;99.90
23873;DHT22;42884;50.718;4.630;2022-09-17T17:10:09;14.60;99.90
23873;DHT22;42884;50.718;4.630;2022-09-17T17:12:35;14.50;99.90
23873;DHT22;42884;50.718;4.630;2022-09-17T17:15:03;14.30;99.90
23873;DHT22;42884;50.718;4.630;2022-09-17T17:17:30;14.30;99.90
23873;DHT22;42884;50.718;4.630;2022-09-17T17:19:57;14.20;99.90
23873;DHT22;42884;50.718;4.630;2022-09-17T17:22:23;14.20;99.90
23873;DHT22;42884;50.718;4.630;2022-09-17T17:24:51;14.10;99.90
23873;DHT22;42884;50.718;4.630;2022-09-17T17:27:17;14.10;99.90
23873;DHT22;42884;50.718;4.630;2022-09-17T17:29:45;14.00;99.90
23873;DHT22;42884;50.718;4.630;2022-09-17T17:32:10;14.00;99.90
23873;DHT22;42884;50.718;4.630;2022-09-17T17:34:41;14.00;99.90
23873;DHT22;42884;50.718;4.630;2022-09-17T17:37:09;14.10;99.90
23873;DHT22;42884;50.718;4.630;2022-09-17T17:39:49;14.10;99.90
23873;DHT22;42884;50.718;4.630;2022-09-17T17:42:17;14.00;99.90
23873;DHT22;42884;50.718;4.630;2022-09-17T17:45:13;14.10;99.90
23873;DHT22;42884;50.718;4.630;2022-09-17T17:47:44;14.00;99.90
23873;DHT22;42884;50.718;4.630;2022-09-17T17:50:19;13.90;99.90
23873;DHT22;42884;50.718;4.630;2022-09-17T17:52:54;13.90;99.90
23873;DHT22;42884;50.718;4.630;2022-09-17T17:55:34;13.90;99.90
23873;DHT22;42884;50.718;4.630;2022-09-17T17:58:05;13.80;99.90
23873;DHT22;42884;50.718;4.630;2022-09-17T18:00:42;13.80;99.90
23873;DHT22;42884;50.718;4.630;2022-09-17T18:06:30;13.80;99.90
23873;DHT22;42884;50.718;4.630;2022-09-17T18:08:55;13.60;99.90
23873;DHT22;42884;50.718;4.630;2022-09-17T18:11:30;13.60;99.90
23873;DHT22;42884;50.718;4.630;2022-09-17T18:13:58;13.40;99.90
23873;DHT22;42884;50.718;4.630;2022-09-17T18:16:29;13.40;99.90
23873;DHT22;42884;50.718;4.630;2022-09-17T18:18:55;13.30;99.90
23873;DHT22;42884;50.718;4.630;2022-09-17T18:21:24;13.30;99.90
23873;DHT22;42884;50.718;4.630;2022-09-17T18:23:50;13.30;99.90
23873;DHT22;42884;50.718;4.630;2022-09-17T18:28:58;13.30;99.90
23873;DHT22;42884;50.718;4.630;2022-09-17T18:31:32;13.30;99.90
23873;DHT22;42884;50.718;4.630;2022-09-17T18:34:11;13.30;99.90
23873;DHT22;42884;50.718;4.630;2022-09-17T18:36:40;13.30;99.90
23873;DHT22;42884;50.718;4.630;2022-09-17T18:39:10;13.30;99.90
23873;DHT22;42884;50.718;4.630;2022-09-17T18:41:37;13.20;99.90
23873;DHT22;42884;50.718;4.630;2022-09-17T18:44:13;13.10;99.90
23873;DHT22;42884;50.718;4.630;2022-09-17T18:46:39;13.20;99.90